Time,TemperatureF,DewpointF,PressureIn,WindDirection,WindDirectionDegrees,WindSpeedMPH,WindSpeedGustMPH,Humidity,HourlyPrecipIn,Conditions,Clouds,dailyrainin,SolarRadiationWatts/m^2,SoftwareType,DateUTC
2013-02-03 00:11:00,13.0,7.0,-100.00,NW,312,18.0,24.0,78,0.00,,,0.00,0.000000,,2013-02-03 06:11:00,
2013-02-03 00:21:00,13.0,7.0,-100.00,NW,312,18.0,24.0,78,0.00,,,0.00,0.000000,,2013-02-03 06:21:00,
2013-02-03 00:32:00,13.0,7.0,-100.00,NW,312,18.0,24.0,78,0.00,,,0.00,0.000000,,2013-02-03 06:32:00,
2013-02-03 00:41:00,13.0,7.0,-100.00,NW,312,18.0,24.0,78,0.00,,,0.00,0.000000,,2013-02-03 06:41:00,
2013-02-03 00:51:00,11.0,5.0,-100.00,NW,308,15.0,24.0,76,0.00,,,0.00,0.000000,,2013-02-03 06:51:00,
2013-02-03 01:11:00,11.0,5.0,-100.00,NW,308,15.0,24.0,76,0.00,,,0.00,0.000000,,2013-02-03 07:11:00,
2013-02-03 01:21:00,11.0,5.0,-100.00,NW,308,15.0,24.0,76,0.00,,,0.00,0.000000,,2013-02-03 07:21:00,
2013-02-03 01:31:00,11.0,5.0,-100.00,NW,308,15.0,24.0,76,0.00,,,0.00,0.000000,,2013-02-03 07:31:00,
2013-02-03 01:42:00,11.0,5.0,-100.00,NW,308,15.0,24.0,76,0.00,,,0.00,0.000000,,2013-02-03 07:42:00,
2013-02-03 01:51:00,9.0,3.0,-100.00,WNW,299,9.0,18.0,75,0.00,,,0.00,0.000000,,2013-02-03 07:51:00,
2013-02-03 02:11:00,9.0,3.0,-100.00,WNW,299,9.0,18.0,75,0.00,,,0.00,0.000000,,2013-02-03 08:11:00,
2013-02-03 02:22:00,9.0,3.0,-100.00,WNW,299,9.0,18.0,75,0.00,,,0.00,0.000000,,2013-02-03 08:22:00,
2013-02-03 02:32:00,9.0,3.0,-100.00,WNW,299,9.0,18.0,75,0.00,,,0.00,0.000000,,2013-02-03 08:32:00,
2013-02-03 02:41:00,9.0,3.0,-100.00,WNW,299,9.0,18.0,75,0.00,,,0.00,0.000000,,2013-02-03 08:41:00,
2013-02-03 02:51:00,9.0,3.0,-100.00,NW,304,10.0,16.0,76,0.00,,,0.00,0.000000,,2013-02-03 08:51:00,
2013-02-03 03:11:00,9.0,3.0,-100.00,NW,304,10.0,16.0,76,0.00,,,0.00,0.000000,,2013-02-03 09:11:00,
2013-02-03 03:21:00,9.0,3.0,-100.00,NW,304,10.0,16.0,76,0.00,,,0.00,0.000000,,2013-02-03 09:21:00,
2013-02-03 03:31:00,9.0,3.0,-100.00,NW,304,10.0,16.0,76,0.00,,,0.00,0.000000,,2013-02-03 09:31:00,
2013-02-03 03:42:00,9.0,3.0,-100.00,NW,304,10.0,16.0,76,0.00,,,0.00,0.000000,,2013-02-03 09:42:00,
2013-02-03 03:51:00,9.0,4.0,-100.00,West,280,5.0,9.0,78,0.00,,,0.00,0.000000,,2013-02-03 09:51:00,
2013-02-03 04:11:00,9.0,4.0,-100.00,West,280,5.0,9.0,78,0.00,,,0.00,0.000000,,2013-02-03 10:11:00,
2013-02-03 04:21:00,9.0,4.0,-100.00,West,280,5.0,9.0,78,0.00,,,0.00,0.000000,,2013-02-03 10:21:00,
2013-02-03 04:31:00,9.0,4.0,-100.00,West,280,5.0,9.0,78,0.00,,,0.00,0.000000,,2013-02-03 10:31:00,
2013-02-03 04:42:00,9.0,4.0,-100.00,West,280,5.0,9.0,78,0.00,,,0.00,0.000000,,2013-02-03 10:42:00,
2013-02-03 04:51:00,10.0,3.0,-100.00,WNW,283,7.0,12.0,74,0.00,,,0.00,0.000000,,2013-02-03 10:51:00,
2013-02-03 05:11:00,10.0,3.0,-100.00,WNW,283,7.0,12.0,74,0.00,,,0.00,0.000000,,2013-02-03 11:11:00,
2013-02-03 05:22:00,10.0,3.0,-100.00,WNW,283,7.0,12.0,74,0.00,,,0.00,0.000000,,2013-02-03 11:22:00,
2013-02-03 05:32:00,10.0,3.0,-100.00,WNW,283,7.0,12.0,74,0.00,,,0.00,0.000000,,2013-02-03 11:32:00,
2013-02-03 05:42:00,10.0,3.0,-100.00,WNW,283,7.0,12.0,74,0.00,,,0.00,0.000000,,2013-02-03 11:42:00,
2013-02-03 05:51:00,10.0,4.0,-100.00,WSW,246,3.0,11.0,75,0.00,,,0.00,0.000000,,2013-02-03 11:51:00,
2013-02-03 06:11:00,10.0,4.0,-100.00,WSW,246,3.0,11.0,75,0.00,,,0.00,0.000000,,2013-02-03 12:11:00,
2013-02-03 06:22:00,10.0,4.0,-100.00,WSW,246,3.0,11.0,75,0.00,,,0.00,0.000000,,2013-02-03 12:22:00,
2013-02-03 06:32:00,10.0,4.0,-100.00,WSW,246,3.0,11.0,75,0.00,,,0.00,0.000000,,2013-02-03 12:32:00,
2013-02-03 06:42:00,10.0,4.0,-100.00,WSW,246,3.0,11.0,75,0.00,,,0.00,0.000000,,2013-02-03 12:42:00,
2013-02-03 06:51:00,12.0,5.0,-100.00,WNW,292,7.0,10.0,72,0.00,,,0.00,0.000000,,2013-02-03 12:51:00,
2013-02-03 07:21:00,12.0,5.0,-100.00,WNW,292,7.0,10.0,72,0.00,,,0.00,0.000000,,2013-02-03 13:21:00,
2013-02-03 07:32:00,12.0,5.0,-100.00,WNW,292,7.0,10.0,72,0.00,,,0.00,0.000000,,2013-02-03 13:32:00,
2013-02-03 07:42:00,12.0,5.0,-100.00,WNW,292,7.0,10.0,72,0.00,,,0.00,0.000000,,2013-02-03 13:42:00,
2013-02-03 07:51:00,12.0,5.0,-100.00,WNW,297,7.0,11.0,72,0.00,,,0.00,1.000000,,2013-02-03 13:51:00,
2013-02-03 08:11:00,12.0,5.0,-100.00,WNW,297,7.0,11.0,72,0.00,,,0.00,1.000000,,2013-02-03 14:11:00,
2013-02-03 08:21:00,12.0,5.0,-100.00,WNW,297,7.0,11.0,72,0.00,,,0.00,1.000000,,2013-02-03 14:21:00,
2013-02-03 08:32:00,12.0,5.0,-100.00,WNW,297,7.0,11.0,72,0.00,,,0.00,1.000000,,2013-02-03 14:32:00,
2013-02-03 08:42:00,12.0,5.0,-100.00,WNW,297,7.0,11.0,72,0.00,,,0.00,1.000000,,2013-02-03 14:42:00,
2013-02-03 08:51:00,13.0,6.0,-100.00,NNW,341,6.0,11.0,72,0.00,,,0.00,23.000000,,2013-02-03 14:51:00,
2013-02-03 09:11:00,13.0,6.0,-100.00,NNW,341,6.0,11.0,72,0.00,,,0.00,23.000000,,2013-02-03 15:11:00,
2013-02-03 09:22:00,13.0,6.0,-100.00,NNW,341,6.0,11.0,72,0.00,,,0.00,23.000000,,2013-02-03 15:22:00,
2013-02-03 09:33:00,13.0,6.0,-100.00,NNW,341,6.0,11.0,72,0.00,,,0.00,23.000000,,2013-02-03 15:33:00,
2013-02-03 09:42:00,13.0,6.0,-100.00,NNW,341,6.0,11.0,72,0.00,,,0.00,23.000000,,2013-02-03 15:42:00,
2013-02-03 09:51:00,13.0,5.0,-100.00,NNW,334,5.0,9.0,70,0.00,,,0.00,74.000000,,2013-02-03 15:51:00,
2013-02-03 10:22:00,13.0,5.0,-100.00,NNW,334,5.0,9.0,70,0.00,,,0.00,74.000000,,2013-02-03 16:22:00,
2013-02-03 10:33:00,13.0,5.0,-100.00,NNW,334,5.0,9.0,70,0.00,,,0.00,74.000000,,2013-02-03 16:33:00,
2013-02-03 10:42:00,13.0,5.0,-100.00,NNW,334,5.0,9.0,70,0.00,,,0.00,74.000000,,2013-02-03 16:42:00,
2013-02-03 10:51:00,14.0,6.0,-100.00,NNE,15,4.0,7.0,70,0.00,,,0.00,133.000000,,2013-02-03 16:51:00,
2013-02-03 11:11:00,14.0,6.0,-100.00,NNE,15,4.0,7.0,70,0.00,,,0.00,133.000000,,2013-02-03 17:11:00,
2013-02-03 11:22:00,14.0,6.0,-100.00,NNE,15,4.0,7.0,70,0.00,,,0.00,133.000000,,2013-02-03 17:22:00,
2013-02-03 11:32:00,14.0,6.0,-100.00,NNE,15,4.0,7.0,70,0.00,,,0.00,133.000000,,2013-02-03 17:32:00,
2013-02-03 11:42:00,14.0,6.0,-100.00,NNE,15,4.0,7.0,70,0.00,,,0.00,133.000000,,2013-02-03 17:42:00,
2013-02-03 11:51:00,15.0,6.0,-100.00,ENE,66,4.0,6.0,66,0.00,,,0.00,195.000000,,2013-02-03 17:51:00,
2013-02-03 12:23:00,15.0,6.0,-100.00,ENE,66,4.0,6.0,66,0.00,,,0.00,195.000000,,2013-02-03 18:23:00,
2013-02-03 12:33:00,15.0,6.0,-100.00,ENE,66,4.0,6.0,66,0.00,,,0.00,195.000000,,2013-02-03 18:33:00,
2013-02-03 12:42:00,15.0,6.0,-100.00,ENE,66,4.0,6.0,66,0.00,,,0.00,195.000000,,2013-02-03 18:42:00,
2013-02-03 12:51:00,16.0,7.0,-100.00,NE,54,6.0,8.0,66,0.00,,,0.00,330.000000,,2013-02-03 18:51:00,
2013-02-03 13:11:00,16.0,7.0,-100.00,NE,54,6.0,8.0,66,0.00,,,0.00,330.000000,,2013-02-03 19:11:00,
2013-02-03 13:22:00,16.0,7.0,-100.00,NE,54,6.0,8.0,66,0.00,,,0.00,330.000000,,2013-02-03 19:22:00,
2013-02-03 13:32:00,16.0,7.0,-100.00,NE,54,6.0,8.0,66,0.00,,,0.00,330.000000,,2013-02-03 19:32:00,
2013-02-03 13:42:00,16.0,7.0,-100.00,NE,54,6.0,8.0,66,0.00,,,0.00,330.000000,,2013-02-03 19:42:00,
2013-02-03 13:51:00,17.0,7.0,-100.00,ENE,68,6.0,10.0,65,0.00,,,0.00,530.000000,,2013-02-03 19:51:00,
2013-02-03 14:12:00,17.0,7.0,-100.00,ENE,68,6.0,10.0,65,0.00,,,0.00,530.000000,,2013-02-03 20:12:00,
2013-02-03 14:21:00,17.0,7.0,-100.00,ENE,68,6.0,10.0,65,0.00,,,0.00,530.000000,,2013-02-03 20:21:00,
2013-02-03 14:33:00,17.0,7.0,-100.00,ENE,68,6.0,10.0,65,0.00,,,0.00,530.000000,,2013-02-03 20:33:00,
2013-02-03 14:42:00,17.0,7.0,-100.00,ENE,68,6.0,10.0,65,0.00,,,0.00,530.000000,,2013-02-03 20:42:00,
2013-02-03 14:51:00,15.0,7.0,-100.00,ENE,70,7.0,10.0,70,0.00,,,0.00,330.000000,,2013-02-03 20:51:00,
2013-02-03 15:11:00,15.0,7.0,-100.00,ENE,70,7.0,10.0,70,0.00,,,0.00,330.000000,,2013-02-03 21:11:00,
2013-02-03 15:21:00,15.0,7.0,-100.00,ENE,70,7.0,10.0,70,0.00,,,0.00,330.000000,,2013-02-03 21:21:00,
2013-02-03 15:32:00,15.0,7.0,-100.00,ENE,70,7.0,10.0,70,0.00,,,0.00,330.000000,,2013-02-03 21:32:00,
2013-02-03 15:42:00,15.0,7.0,-100.00,ENE,70,7.0,10.0,70,0.00,,,0.00,330.000000,,2013-02-03 21:42:00,
2013-02-03 15:51:00,15.0,8.0,-100.00,ENE,64,6.0,11.0,72,0.00,,,0.00,160.000000,,2013-02-03 21:51:00,
2013-02-03 16:21:00,15.0,8.0,-100.00,ENE,64,6.0,11.0,72,0.00,,,0.00,160.000000,,2013-02-03 22:21:00,
2013-02-03 16:32:00,15.0,8.0,-100.00,ENE,64,6.0,11.0,72,0.00,,,0.00,160.000000,,2013-02-03 22:32:00,
2013-02-03 16:42:00,15.0,8.0,-100.00,ENE,64,6.0,11.0,72,0.00,,,0.00,160.000000,,2013-02-03 22:42:00,
2013-02-03 16:51:00,14.0,8.0,-100.00,ENE,74,6.0,10.0,76,0.00,,,0.00,92.000000,,2013-02-03 22:51:00,
2013-02-03 17:22:00,14.0,8.0,-100.00,ENE,74,6.0,10.0,76,0.00,,,0.00,92.000000,,2013-02-03 23:22:00,
2013-02-03 17:32:00,14.0,8.0,-100.00,ENE,74,6.0,10.0,76,0.00,,,0.00,92.000000,,2013-02-03 23:32:00,
2013-02-03 17:42:00,14.0,8.0,-100.00,ENE,74,6.0,10.0,76,0.00,,,0.00,92.000000,,2013-02-03 23:42:00,
2013-02-03 17:51:00,13.0,9.0,-100.00,ENE,77,7.0,9.0,84,0.00,,,0.00,14.000000,,2013-02-03 23:51:00,
2013-02-03 18:11:00,13.0,9.0,-100.00,ENE,77,7.0,9.0,84,0.00,,,0.00,14.000000,,2013-02-04 00:11:00,
2013-02-03 18:22:00,13.0,9.0,-100.00,ENE,77,7.0,9.0,84,0.00,,,0.00,14.000000,,2013-02-04 00:22:00,
2013-02-03 18:32:00,13.0,9.0,-100.00,ENE,77,7.0,9.0,84,0.00,,,0.00,14.000000,,2013-02-04 00:32:00,
2013-02-03 18:41:00,13.0,9.0,-100.00,ENE,77,7.0,9.0,84,0.00,,,0.00,14.000000,,2013-02-04 00:41:00,
2013-02-03 18:51:00,13.0,9.0,-100.00,NE,48,8.0,11.0,83,0.00,,,0.00,0.000000,,2013-02-04 00:51:00,
2013-02-03 19:11:00,13.0,9.0,-100.00,NE,48,8.0,11.0,83,0.00,,,0.00,0.000000,,2013-02-04 01:11:00,
2013-02-03 19:21:00,13.0,9.0,-100.00,NE,48,8.0,11.0,83,0.00,,,0.00,0.000000,,2013-02-04 01:21:00,
2013-02-03 19:32:00,13.0,9.0,-100.00,NE,48,8.0,11.0,83,0.00,,,0.00,0.000000,,2013-02-04 01:32:00,
2013-02-03 19:41:00,13.0,9.0,-100.00,NE,48,8.0,11.0,83,0.00,,,0.00,0.000000,,2013-02-04 01:41:00,
2013-02-03 19:51:00,12.0,8.0,-100.00,NNE,30,8.0,12.0,84,0.00,,,0.00,0.000000,,2013-02-04 01:51:00,
2013-02-03 20:11:00,12.0,8.0,-100.00,NNE,30,8.0,12.0,84,0.00,,,0.00,0.000000,,2013-02-04 02:11:00,
2013-02-03 20:21:00,12.0,8.0,-100.00,NNE,30,8.0,12.0,84,0.00,,,0.00,0.000000,,2013-02-04 02:21:00,
2013-02-03 20:32:00,12.0,8.0,-100.00,NNE,30,8.0,12.0,84,0.00,,,0.00,0.000000,,2013-02-04 02:32:00,
2013-02-03 20:41:00,12.0,8.0,-100.00,NNE,30,8.0,12.0,84,0.00,,,0.00,0.000000,,2013-02-04 02:41:00,
2013-02-03 20:51:00,11.0,7.0,-100.00,NNE,33,8.0,11.0,82,0.00,,,0.00,0.000000,,2013-02-04 02:51:00,
2013-02-03 21:11:00,11.0,7.0,-100.00,NNE,33,8.0,11.0,82,0.00,,,0.00,0.000000,,2013-02-04 03:11:00,
2013-02-03 21:21:00,11.0,7.0,-100.00,NNE,33,8.0,11.0,82,0.00,,,0.00,0.000000,,2013-02-04 03:21:00,
2013-02-03 21:32:00,11.0,7.0,-100.00,NNE,33,8.0,11.0,82,0.00,,,0.00,0.000000,,2013-02-04 03:32:00,
2013-02-03 21:42:00,11.0,7.0,-100.00,NNE,33,8.0,11.0,82,0.00,,,0.00,0.000000,,2013-02-04 03:42:00,
2013-02-03 21:51:00,11.0,7.0,-100.00,NNE,29,8.0,11.0,82,0.00,,,0.00,0.000000,,2013-02-04 03:51:00,
2013-02-03 22:11:00,11.0,7.0,-100.00,NNE,29,8.0,11.0,82,0.00,,,0.00,0.000000,,2013-02-04 04:11:00,
2013-02-03 22:21:00,11.0,7.0,-100.00,NNE,29,8.0,11.0,82,0.00,,,0.00,0.000000,,2013-02-04 04:21:00,
2013-02-03 22:32:00,11.0,7.0,-100.00,NNE,29,8.0,11.0,82,0.00,,,0.00,0.000000,,2013-02-04 04:32:00,
2013-02-03 22:41:00,11.0,7.0,-100.00,NNE,29,8.0,11.0,82,0.00,,,0.00,0.000000,,2013-02-04 04:41:00,
2013-02-03 22:51:00,11.0,6.0,-100.00,NNE,22,9.0,12.0,81,0.00,,,0.00,0.000000,,2013-02-04 04:51:00,
2013-02-03 23:22:00,11.0,6.0,-100.00,NNE,22,9.0,12.0,81,0.00,,,0.00,0.000000,,2013-02-04 05:22:00,
2013-02-03 23:33:00,11.0,6.0,-100.00,NNE,22,9.0,12.0,81,0.00,,,0.00,0.000000,,2013-02-04 05:33:00,
2013-02-03 23:42:00,11.0,6.0,-100.00,NNE,22,9.0,12.0,81,0.00,,,0.00,0.000000,,2013-02-04 05:42:00,
2013-02-03 23:51:00,10.0,5.0,-100.00,North,7,12.0,14.0,81,0.00,,,0.00,0.000000,,2013-02-04 05:51:00,